Time;durP1;ratioP1;P1;durP2;ratioP2;P2;SDS_P1;SDS_P2;PMS_P1;PMS_P2;Temp;Humidity;BMP_temperature;BMP_pressure;BME280_temperature;BME280_humidity;BME280_pressure;Samples;Min_cycle;Max_cycle;Signal;HPM_P1;HPM_P2
2024/04/09 00:00:46;;;;;;;10.80;5.00;;;;;;;;;;5513578;25;21187;-74
2024/04/09 00:03:12;;;;;;;13.20;4.50;;;;;;;;;;5520342;25;20471;-73
2024/04/09 00:05:43;;;;;;;9.13;4.43;;;;;;;;;;5520549;26;20472;-73
2024/04/09 00:08:10;;;;;;;8.13;3.87;;;;;;;;;;5521334;26;20463;-73
2024/04/09 00:10:40;;;;;;;7.27;3.80;;;;;;;;;;5534498;25;20466;-73
2024/04/09 00:13:06;;;;;;;14.00;5.10;;;;;;;;;;5521262;25;20476;-73
2024/04/09 00:15:40;;;;;;;4.67;3.40;;;;;;;;;;5524778;25;20470;-73
2024/04/09 00:18:11;;;;;;;9.30;4.10;;;;;;;;;;5519723;26;20463;-73
2024/04/09 00:20:40;;;;;;;12.07;4.93;;;;;;;;;;5517596;26;20547;-74
2024/04/09 00:23:06;;;;;;;9.10;5.17;;;;;;;;;;5517978;25;20466;-73
2024/04/09 00:25:37;;;;;;;6.63;4.37;;;;;;;;;;5519170;26;20472;-73
2024/04/09 00:28:03;;;;;;;10.10;4.43;;;;;;;;;;5521435;26;20526;-73
2024/04/09 00:30:32;;;;;;;6.93;3.77;;;;;;;;;;5519880;25;20584;-73
2024/04/09 00:33:01;;;;;;;7.37;3.73;;;;;;;;;;5519506;26;20531;-73
2024/04/09 00:35:31;;;;;;;7.30;3.67;;;;;;;;;;5521138;25;20575;-73
2024/04/09 00:37:59;;;;;;;10.63;5.40;;;;;;;;;;5522671;25;20470;-73
2024/04/09 00:40:29;;;;;;;12.40;4.87;;;;;;;;;;5520657;26;20522;-73
2024/04/09 00:42:57;;;;;;;11.40;4.33;;;;;;;;;;5522429;25;20555;-73
2024/04/09 00:45:28;;;;;;;8.27;4.70;;;;;;;;;;5523906;25;20530;-73
2024/04/09 00:47:55;;;;;;;11.90;4.67;;;;;;;;;;5524569;25;20858;-73
2024/04/09 00:50:26;;;;;;;8.13;4.13;;;;;;;;;;5524146;26;20833;-73
2024/04/09 00:52:55;;;;;;;9.60;4.50;;;;;;;;;;5525661;26;20533;-73
2024/04/09 00:55:25;;;;;;;10.80;5.27;;;;;;;;;;5524351;25;20841;-73
2024/04/09 00:57:52;;;;;;;6.83;4.10;;;;;;;;;;5525860;25;20465;-73
2024/04/09 01:00:21;;;;;;;5.50;4.10;;;;;;;;;;5524380;25;20517;-73
2024/04/09 01:02:48;;;;;;;9.63;4.53;;;;;;;;;;5525307;26;20539;-73
2024/04/09 01:05:17;;;;;;;7.80;4.17;;;;;;;;;;5524283;26;20915;-73
2024/04/09 01:07:46;;;;;;;7.67;4.63;;;;;;;;;;5525331;25;20518;-73
2024/04/09 01:10:15;;;;;;;11.10;5.23;;;;;;;;;;5523805;26;20588;-73
2024/04/09 01:12:41;;;;;;;9.93;5.60;;;;;;;;;;5525219;26;21056;-73
2024/04/09 01:15:11;;;;;;;8.33;4.60;;;;;;;;;;5514865;25;20466;-73
2024/04/09 01:17:38;;;;;;;10.33;3.80;;;;;;;;;;5525832;26;20669;-73
2024/04/09 01:20:07;;;;;;;7.93;5.73;;;;;;;;;;5523379;26;20519;-73
2024/04/09 01:22:37;;;;;;;20.47;6.47;;;;;;;;;;5516418;26;20507;-73
2024/04/09 01:25:06;;;;;;;12.27;4.90;;;;;;;;;;5524063;25;20523;-73
2024/04/09 01:27:33;;;;;;;11.93;5.20;;;;;;;;;;5525658;26;20523;-73
2024/04/09 01:30:05;;;;;;;9.60;5.00;;;;;;;;;;5523222;26;20464;-73
2024/04/09 01:32:32;;;;;;;16.30;5.83;;;;;;;;;;5524880;26;20467;-73
2024/04/09 01:35:01;;;;;;;11.67;5.87;;;;;;;;;;5524982;25;20470;-73
2024/04/09 01:37:28;;;;;;;7.23;5.70;;;;;;;;;;5525020;25;20480;-73
2024/04/09 01:39:59;;;;;;;12.50;4.70;;;;;;;;;;5525495;26;21086;-73
2024/04/09 01:42:25;;;;;;;12.23;5.20;;;;;;;;;;5525220;26;20467;-73
2024/04/09 01:44:54;;;;;;;12.10;4.73;;;;;;;;;;5525289;26;20471;-73
2024/04/09 01:47:21;;;;;;;12.23;5.00;;;;;;;;;;5525393;25;20488;-73
2024/04/09 01:49:50;;;;;;;12.80;5.80;;;;;;;;;;5524950;26;20547;-73
2024/04/09 01:52:16;;;;;;;7.70;5.20;;;;;;;;;;5524953;26;20468;-73
2024/04/09 01:54:46;;;;;;;7.77;4.67;;;;;;;;;;5524139;26;20882;-73
2024/04/09 01:57:16;;;;;;;7.07;4.40;;;;;;;;;;5525321;25;20890;-73
2024/04/09 01:59:44;;;;;;;9.60;4.33;;;;;;;;;;5525039;26;20460;-73
2024/04/09 02:02:10;;;;;;;13.07;6.10;;;;;;;;;;5524486;26;20468;-73
2024/04/09 02:04:39;;;;;;;13.27;5.80;;;;;;;;;;5525437;26;20474;-73
2024/04/09 02:07:05;;;;;;;7.10;5.10;;;;;;;;;;5525272;25;20486;-73
2024/04/09 02:09:34;;;;;;;18.97;6.50;;;;;;;;;;5524726;26;21030;-73
2024/04/09 02:12:00;;;;;;;14.20;6.63;;;;;;;;;;5524437;25;20533;-73
2024/04/09 02:14:32;;;;;;;9.53;5.73;;;;;;;;;;5524949;25;21000;-73
2024/04/09 02:16:58;;;;;;;7.80;4.90;;;;;;;;;;5524242;25;20536;-73
2024/04/09 02:19:27;;;;;;;9.10;4.47;;;;;;;;;;5525200;25;20577;-73
2024/04/09 02:21:53;;;;;;;8.77;4.80;;;;;;;;;;5524587;26;21269;-73
2024/04/09 02:24:22;;;;;;;10.43;5.23;;;;;;;;;;5524979;25;20479;-73
2024/04/09 02:26:48;;;;;;;7.03;5.60;;;;;;;;;;5523253;25;20471;-73
2024/04/09 02:29:17;;;;;;;9.00;5.17;;;;;;;;;;5524410;26;20574;-73
2024/04/09 02:31:46;;;;;;;8.50;4.70;;;;;;;;;;5524179;26;20619;-73
2024/04/09 02:34:15;;;;;;;8.73;4.30;;;;;;;;;;5525091;26;20472;-73
2024/04/09 02:36:41;;;;;;;9.90;4.60;;;;;;;;;;5524915;25;20481;-73
2024/04/09 02:39:10;;;;;;;12.53;5.20;;;;;;;;;;5525010;26;20482;-73
2024/04/09 02:41:39;;;;;;;11.20;5.00;;;;;;;;;;5524334;26;20460;-73
2024/04/09 02:44:08;;;;;;;10.60;4.67;;;;;;;;;;5524774;26;20464;-73
2024/04/09 02:46:34;;;;;;;7.63;4.37;;;;;;;;;;5524602;25;20527;-73
2024/04/09 02:49:06;;;;;;;14.17;7.60;;;;;;;;;;5524568;26;20474;-73
2024/04/09 02:51:32;;;;;;;7.93;5.00;;;;;;;;;;5523917;26;20475;-73
2024/04/09 02:54:01;;;;;;;13.03;5.60;;;;;;;;;;5524594;26;20863;-73
2024/04/09 02:56:27;;;;;;;9.97;5.40;;;;;;;;;;5524381;25;20532;-73
2024/04/09 02:58:56;;;;;;;11.53;5.67;;;;;;;;;;5524506;26;20467;-73
2024/04/09 03:01:22;;;;;;;9.50;5.70;;;;;;;;;;5523894;26;20467;-74
2024/04/09 03:03:52;;;;;;;11.40;5.03;;;;;;;;;;5524566;26;20460;-73
2024/04/09 03:06:21;;;;;;;13.83;5.80;;;;;;;;;;5523867;25;20543;-73
2024/04/09 03:08:50;;;;;;;9.77;5.43;;;;;;;;;;5523852;26;20472;-73
2024/04/09 03:11:17;;;;;;;10.33;5.43;;;;;;;;;;5524036;26;20460;-73
2024/04/09 03:13:46;;;;;;;11.90;5.97;;;;;;;;;;5523908;26;20457;-73
2024/04/09 03:16:13;;;;;;;12.53;5.53;;;;;;;;;;5524077;25;20475;-73
2024/04/09 03:18:42;;;;;;;6.97;4.50;;;;;;;;;;5524139;26;20544;-73
2024/04/09 03:21:08;;;;;;;13.90;4.37;;;;;;;;;;5524117;26;20514;-73
2024/04/09 03:23:40;;;;;;;9.23;6.40;;;;;;;;;;5523066;26;20520;-73
2024/04/09 03:26:06;;;;;;;12.93;5.30;;;;;;;;;;5524074;25;20520;-73
2024/04/09 03:28:35;;;;;;;12.67;5.40;;;;;;;;;;5522448;26;20452;-73
2024/04/09 03:31:02;;;;;;;9.83;5.03;;;;;;;;;;5523838;25;20870;-73
2024/04/09 03:33:31;;;;;;;12.37;4.80;;;;;;;;;;5523824;26;20814;-73
2024/04/09 03:35:58;;;;;;;11.40;4.77;;;;;;;;;;5523831;25;20478;-73
2024/04/09 03:38:27;;;;;;;8.07;5.17;;;;;;;;;;5523911;26;20523;-73
2024/04/09 03:40:59;;;;;;;7.70;4.40;;;;;;;;;;5524132;26;21330;-73
2024/04/09 03:43:25;;;;;;;13.00;5.60;;;;;;;;;;5523705;25;20524;-73
2024/04/09 03:46:03;;;;;;;10.90;4.80;;;;;;;;;;5523726;25;20535;-73
2024/04/09 03:48:29;;;;;;;11.07;6.23;;;;;;;;;;5523881;25;20460;-73
2024/04/09 03:50:58;;;;;;;13.27;7.73;;;;;;;;;;5523556;26;20464;-73
2024/04/09 03:53:24;;;;;;;10.87;5.43;;;;;;;;;;5523303;26;20857;-73
2024/04/09 03:55:59;;;;;;;15.23;5.70;;;;;;;;;;5523732;25;20592;-73
2024/04/09 03:58:28;;;;;;;13.33;4.77;;;;;;;;;;5523608;26;20794;-73
2024/04/09 04:00:57;;;;;;;12.70;6.23;;;;;;;;;;5523548;26;20572;-73
2024/04/09 04:03:24;;;;;;;8.77;4.77;;;;;;;;;;5523382;25;20582;-73
2024/04/09 04:05:53;;;;;;;14.30;5.07;;;;;;;;;;5523406;25;20539;-73
2024/04/09 04:08:20;;;;;;;15.33;6.40;;;;;;;;;;5523481;26;20515;-73
2024/04/09 04:10:54;;;;;;;10.30;6.60;;;;;;;;;;5523128;26;20483;-73
2024/04/09 04:13:24;;;;;;;15.70;6.80;;;;;;;;;;5522988;25;20459;-73
2024/04/09 04:16:01;;;;;;;9.60;5.50;;;;;;;;;;5523170;25;20823;-73
2024/04/09 04:18:27;;;;;;;11.43;5.37;;;;;;;;;;5522445;26;20581;-73
2024/04/09 04:20:56;;;;;;;10.63;6.37;;;;;;;;;;5522451;26;20467;-73
2024/04/09 04:23:22;;;;;;;13.10;5.23;;;;;;;;;;5522898;25;20524;-73
2024/04/09 04:25:58;;;;;;;10.73;5.70;;;;;;;;;;5522943;25;20516;-73
2024/04/09 04:28:28;;;;;;;9.07;5.53;;;;;;;;;;5523058;26;20459;-73
2024/04/09 04:30:56;;;;;;;12.20;5.73;;;;;;;;;;5522852;26;20536;-73
2024/04/09 04:33:23;;;;;;;11.40;4.87;;;;;;;;;;5523025;26;20463;-73
2024/04/09 04:35:51;;;;;;;11.70;5.83;;;;;;;;;;5522976;25;20490;-73
2024/04/09 04:38:18;;;;;;;9.33;7.00;;;;;;;;;;5522949;25;20517;-73
2024/04/09 04:40:47;;;;;;;13.87;5.33;;;;;;;;;;5522761;26;20878;-73
2024/04/09 04:43:13;;;;;;;13.70;5.30;;;;;;;;;;5522483;26;20465;-73
2024/04/09 04:45:45;;;;;;;13.43;7.50;;;;;;;;;;5522670;25;20467;-73
2024/04/09 04:48:12;;;;;;;9.13;5.33;;;;;;;;;;5522896;26;20453;-73
2024/04/09 04:50:41;;;;;;;10.27;6.37;;;;;;;;;;5522724;26;20468;-73
2024/04/09 04:53:07;;;;;;;9.43;6.70;;;;;;;;;;5522180;26;20466;-73
2024/04/09 04:55:36;;;;;;;12.73;6.13;;;;;;;;;;5522459;25;20512;-73
2024/04/09 04:58:02;;;;;;;8.10;5.47;;;;;;;;;;5522676;26;20467;-73
2024/04/09 05:00:31;;;;;;;9.60;5.37;;;;;;;;;;5522530;26;20476;-73
2024/04/09 05:03:00;;;;;;;7.90;4.60;;;;;;;;;;5521986;26;20536;-73
2024/04/09 05:05:29;;;;;;;13.50;5.70;;;;;;;;;;5522630;25;20460;-73
2024/04/09 05:07:55;;;;;;;14.60;6.57;;;;;;;;;;5522400;26;20467;-73
2024/04/09 05:10:24;;;;;;;10.70;5.07;;;;;;;;;;5522482;26;20470;-73
2024/04/09 05:12:51;;;;;;;12.17;5.73;;;;;;;;;;5521992;25;20466;-73
2024/04/09 05:15:20;;;;;;;9.90;4.83;;;;;;;;;;5522744;26;20504;-73
2024/04/09 05:17:47;;;;;;;10.63;5.40;;;;;;;;;;5522677;26;20467;-73
2024/04/09 05:20:20;;;;;;;12.73;5.73;;;;;;;;;;5522441;26;20510;-73
2024/04/09 05:22:47;;;;;;;5.80;4.67;;;;;;;;;;5521759;26;20467;-73
2024/04/09 05:25:16;;;;;;;10.93;5.00;;;;;;;;;;5522041;26;20467;-73
2024/04/09 05:27:43;;;;;;;14.80;5.80;;;;;;;;;;5522056;25;20531;-73
2024/04/09 05:30:13;;;;;;;11.07;7.00;;;;;;;;;;5522666;26;20595;-73
2024/04/09 05:32:41;;;;;;;6.73;5.03;;;;;;;;;;5525297;25;20520;-73
2024/04/09 05:35:11;;;;;;;9.90;5.30;;;;;;;;;;5525876;26;20455;-73
2024/04/09 05:37:40;;;;;;;18.27;6.10;;;;;;;;;;5525489;25;20927;-73
2024/04/09 05:40:11;;;;;;;9.07;5.67;;;;;;;;;;5525428;26;21008;-72
2024/04/09 05:42:37;;;;;;;10.37;6.27;;;;;;;;;;5525191;26;21116;-73
2024/04/09 05:45:06;;;;;;;11.83;5.63;;;;;;;;;;5525555;26;20475;-73
2024/04/09 05:47:33;;;;;;;14.77;5.67;;;;;;;;;;5525556;25;20528;-73
2024/04/09 05:50:03;;;;;;;10.43;5.10;;;;;;;;;;5525742;26;20470;-73
2024/04/09 05:52:30;;;;;;;7.13;5.00;;;;;;;;;;5524931;26;20452;-73
2024/04/09 05:55:02;;;;;;;8.20;5.90;;;;;;;;;;5525385;26;20944;-73
2024/04/09 05:57:32;;;;;;;12.83;6.70;;;;;;;;;;5525295;25;20530;-73
2024/04/09 06:00:01;;;;;;;7.07;6.30;;;;;;;;;;5525558;26;20502;-73
2024/04/09 06:02:28;;;;;;;10.40;5.10;;;;;;;;;;5525056;26;21065;-73
2024/04/09 06:04:59;;;;;;;6.93;4.80;;;;;;;;;;5525532;25;20544;-73
2024/04/09 06:07:28;;;;;;;12.87;5.87;;;;;;;;;;5525353;25;20520;-73
2024/04/09 06:09:57;;;;;;;11.97;6.50;;;;;;;;;;5525256;26;20471;-73
2024/04/09 06:12:25;;;;;;;15.37;7.33;;;;;;;;;;5524647;26;20464;-73
2024/04/09 06:14:56;;;;;;;15.20;6.70;;;;;;;;;;5525416;25;20468;-73
2024/04/09 06:17:22;;;;;;;13.93;5.80;;;;;;;;;;5524996;25;20608;-73
2024/04/09 06:19:53;;;;;;;11.37;7.40;;;;;;;;;;5525037;26;20578;-73
2024/04/09 06:22:19;;;;;;;13.20;5.80;;;;;;;;;;5524691;26;20460;-73
2024/04/09 06:24:50;;;;;;;10.47;6.10;;;;;;;;;;5525038;26;20456;-73
2024/04/09 06:27:16;;;;;;;6.97;5.50;;;;;;;;;;5524696;25;20557;-73
2024/04/09 06:29:48;;;;;;;9.30;4.87;;;;;;;;;;5524227;26;21483;-73
2024/04/09 06:32:14;;;;;;;9.13;5.73;;;;;;;;;;5524094;26;20826;-73
2024/04/09 06:34:43;;;;;;;11.10;5.67;;;;;;;;;;5524456;26;20600;-73
2024/04/09 06:37:09;;;;;;;16.50;9.20;;;;;;;;;;5524386;25;20479;-73
2024/04/09 06:39:38;;;;;;;15.13;6.20;;;;;;;;;;5524397;26;20516;-73
2024/04/09 06:42:05;;;;;;;15.30;8.30;;;;;;;;;;5523468;26;20454;-73
2024/04/09 06:44:33;;;;;;;14.13;6.00;;;;;;;;;;5524802;26;20477;-73
2024/04/09 06:47:02;;;;;;;10.17;6.77;;;;;;;;;;5524285;25;20580;-73
2024/04/09 06:49:31;;;;;;;17.73;7.30;;;;;;;;;;5523567;26;20625;-72
2024/04/09 06:51:57;;;;;;;10.47;7.30;;;;;;;;;;5523750;26;20467;-73
2024/04/09 06:54:26;;;;;;;12.50;7.30;;;;;;;;;;5523318;26;20558;-73
2024/04/09 06:56:52;;;;;;;15.87;6.50;;;;;;;;;;5522783;25;20487;-72
2024/04/09 06:59:21;;;;;;;18.30;7.33;;;;;;;;;;5514754;25;20468;-72
2024/04/09 07:01:48;;;;;;;16.60;6.77;;;;;;;;;;5506883;25;20529;-73
2024/04/09 07:04:19;;;;;;;16.20;6.17;;;;;;;;;;5518836;26;20549;-73
2024/04/09 07:06:45;;;;;;;11.13;6.63;;;;;;;;;;5515052;25;20528;-73
2024/04/09 07:09:16;;;;;;;13.93;6.20;;;;;;;;;;5522067;26;20528;-73
2024/04/09 07:11:43;;;;;;;9.47;6.23;;;;;;;;;;5523203;25;20612;-73
2024/04/09 07:14:12;;;;;;;17.40;7.97;;;;;;;;;;5522896;26;20524;-73
2024/04/09 07:16:38;;;;;;;8.97;7.10;;;;;;;;;;5523371;25;20515;-73
2024/04/09 07:19:08;;;;;;;14.40;6.50;;;;;;;;;;5522602;26;20488;-73
2024/04/09 07:21:36;;;;;;;11.90;6.20;;;;;;;;;;5522956;26;20472;-73
2024/04/09 07:24:06;;;;;;;17.13;6.93;;;;;;;;;;5521247;25;20890;-73
2024/04/09 07:26:32;;;;;;;17.77;7.20;;;;;;;;;;5523069;25;20472;-72
2024/04/09 07:29:01;;;;;;;13.73;6.10;;;;;;;;;;5523493;26;21096;-73
2024/04/09 07:31:28;;;;;;;15.73;6.90;;;;;;;;;;5518182;26;20472;-73
2024/04/09 07:33:57;;;;;;;13.80;6.00;;;;;;;;;;5522728;26;20477;-73
2024/04/09 07:36:23;;;;;;;15.37;5.07;;;;;;;;;;5522794;25;20468;-73
2024/04/09 07:38:55;;;;;;;11.77;5.43;;;;;;;;;;5522490;26;20583;-73
2024/04/09 07:41:23;;;;;;;14.60;5.77;;;;;;;;;;5520676;25;20536;-73
2024/04/09 07:43:52;;;;;;;10.00;4.20;;;;;;;;;;5523248;25;20473;-72
2024/04/09 07:46:18;;;;;;;7.40;3.50;;;;;;;;;;5511743;25;20488;-72
2024/04/09 07:48:47;;;;;;;10.63;4.10;;;;;;;;;;5522937;26;21024;-73
2024/04/09 07:51:13;;;;;;;6.90;3.30;;;;;;;;;;5521581;25;21028;-73
2024/04/09 07:53:42;;;;;;;6.67;4.10;;;;;;;;;;5521102;25;20547;-73
2024/04/09 07:56:12;;;;;;;10.80;3.63;;;;;;;;;;5518187;25;20473;-72
2024/04/09 07:58:41;;;;;;;5.57;3.23;;;;;;;;;;5522628;25;20592;-72
2024/04/09 08:01:07;;;;;;;10.53;4.03;;;;;;;;;;5519414;25;21056;-72
2024/04/09 08:03:37;;;;;;;6.63;3.87;;;;;;;;;;5521986;25;20474;-72
2024/04/09 08:06:03;;;;;;;11.53;3.63;;;;;;;;;;5522195;25;20603;-72
2024/04/09 08:08:32;;;;;;;5.40;3.60;;;;;;;;;;5521717;25;20577;-72
2024/04/09 08:10:58;;;;;;;11.97;5.67;;;;;;;;;;5521525;26;20633;-72
2024/04/09 08:13:30;;;;;;;10.27;3.90;;;;;;;;;;5522987;26;20593;-73
2024/04/09 08:15:56;;;;;;;8.13;3.50;;;;;;;;;;5523435;25;21079;-73
2024/04/09 08:18:25;;;;;;;8.30;3.33;;;;;;;;;;5523320;26;20522;-73
2024/04/09 08:20:52;;;;;;;9.10;4.50;;;;;;;;;;5523326;25;21081;-73
2024/04/09 08:23:21;;;;;;;5.13;2.80;;;;;;;;;;5519654;26;20634;-73
2024/04/09 08:25:49;;;;;;;6.63;3.40;;;;;;;;;;5521938;25;20625;-73
2024/04/09 08:28:18;;;;;;;7.50;4.67;;;;;;;;;;5522856;26;20549;-74
2024/04/09 08:30:48;;;;;;;11.53;2.50;;;;;;;;;;5522579;26;20515;-73
2024/04/09 08:33:17;;;;;;;6.30;2.67;;;;;;;;;;5522122;26;20503;-74
2024/04/09 08:35:44;;;;;;;4.77;2.20;;;;;;;;;;5522084;25;20536;-74
2024/04/09 08:38:13;;;;;;;4.97;2.00;;;;;;;;;;5522142;25;20478;-73
2024/04/09 08:40:39;;;;;;;7.73;2.20;;;;;;;;;;5522134;26;20478;-73
2024/04/09 08:43:08;;;;;;;5.63;2.27;;;;;;;;;;5521855;26;20509;-73
2024/04/09 08:45:36;;;;;;;2.80;2.13;;;;;;;;;;5521889;25;20465;-74
2024/04/09 08:48:09;;;;;;;8.80;3.00;;;;;;;;;;5522362;26;20467;-73
2024/04/09 08:50:35;;;;;;;8.80;4.20;;;;;;;;;;5521902;26;20456;-74
2024/04/09 08:53:05;;;;;;;4.07;2.43;;;;;;;;;;5521522;26;20461;-73
2024/04/09 08:55:31;;;;;;;3.30;2.30;;;;;;;;;;5521931;25;20602;-74
2024/04/09 08:58:01;;;;;;;3.73;2.63;;;;;;;;;;5521633;26;20547;-75
2024/04/09 09:00:27;;;;;;;7.00;2.90;;;;;;;;;;5521210;26;20590;-74
2024/04/09 09:02:56;;;;;;;3.17;2.37;;;;;;;;;;5519966;26;20511;-73
2024/04/09 09:05:24;;;;;;;3.20;2.00;;;;;;;;;;5523860;25;20508;-74
2024/04/09 09:08:03;;;;;;;6.47;2.60;;;;;;;;;;5527521;25;20465;-72
2024/04/09 09:10:29;;;;;;;6.47;2.20;;;;;;;;;;5525674;26;20468;-73
2024/04/09 09:13:02;;;;;;;4.40;3.03;;;;;;;;;;5525823;25;21045;-73
2024/04/09 09:15:28;;;;;;;4.60;2.50;;;;;;;;;;5524188;25;20547;-74
2024/04/09 09:17:57;;;;;;;4.33;1.90;;;;;;;;;;5525570;26;20877;-74
2024/04/09 09:20:26;;;;;;;12.23;2.63;;;;;;;;;;5525382;25;20905;-74
2024/04/09 09:22:54;;;;;;;7.23;2.80;;;;;;;;;;5525423;26;20474;-73
2024/04/09 09:25:22;;;;;;;1.77;1.67;;;;;;;;;;5525817;26;20464;-73
2024/04/09 09:27:51;;;;;;;2.87;1.70;;;;;;;;;;5525670;26;20577;-73
2024/04/09 09:30:17;;;;;;;2.00;1.80;;;;;;;;;;5525909;26;20456;-73
2024/04/09 09:32:50;;;;;;;4.20;1.70;;;;;;;;;;5525115;26;20521;-73
2024/04/09 09:35:17;;;;;;;2.40;2.20;;;;;;;;;;5525594;25;20566;-74
2024/04/09 09:37:51;;;;;;;5.83;1.90;;;;;;;;;;5525409;25;20475;-73
2024/04/09 09:40:17;;;;;;;2.60;1.37;;;;;;;;;;5523841;25;20620;-75
2024/04/09 09:42:47;;;;;;;2.53;1.20;;;;;;;;;;5524631;25;20476;-72
2024/04/09 09:45:13;;;;;;;4.17;1.33;;;;;;;;;;5524613;25;20536;-74
2024/04/09 09:47:42;;;;;;;2.33;1.23;;;;;;;;;;5524458;26;21167;-73
2024/04/09 09:50:10;;;;;;;6.53;1.57;;;;;;;;;;5524356;26;20604;-73
2024/04/09 09:52:40;;;;;;;2.10;1.20;;;;;;;;;;5524140;25;20525;-74
2024/04/09 09:55:09;;;;;;;3.20;2.17;;;;;;;;;;5524735;25;20512;-73
2024/04/09 09:57:39;;;;;;;3.83;1.40;;;;;;;;;;5524127;25;20486;-75
2024/04/09 10:00:09;;;;;;;3.23;1.30;;;;;;;;;;5524689;25;20478;-74
2024/04/09 10:02:41;;;;;;;2.23;1.40;;;;;;;;;;5507557;25;20474;-73
2024/04/09 10:05:07;;;;;;;6.73;1.47;;;;;;;;;;5520811;25;21126;-74
2024/04/09 10:07:36;;;;;;;3.20;1.70;;;;;;;;;;5521174;25;20473;-72
2024/04/09 10:10:03;;;;;;;2.00;1.00;;;;;;;;;;5523754;25;20465;-73
2024/04/09 10:12:35;;;;;;;1.93;1.27;;;;;;;;;;5510116;25;20467;-72
2024/04/09 10:15:02;;;;;;;1.27;1.00;;;;;;;;;;5519989;25;20530;-76
2024/04/09 10:17:32;;;;;;;3.20;1.57;;;;;;;;;;5508791;25;20480;-73
2024/04/09 10:20:01;;;;;;;2.03;0.90;;;;;;;;;;5521867;25;20536;-73
2024/04/09 10:22:31;;;;;;;1.43;0.83;;;;;;;;;;5522006;25;20565;-73
2024/04/09 10:24:58;;;;;;;1.10;0.90;;;;;;;;;;5522935;25;20472;-74
2024/04/09 10:27:27;;;;;;;1.83;0.93;;;;;;;;;;5522572;25;20488;-73
2024/04/09 10:29:56;;;;;;;5.13;1.00;;;;;;;;;;5522523;26;20517;-73
2024/04/09 10:32:25;;;;;;;1.50;0.50;;;;;;;;;;5521408;25;20533;-75
2024/04/09 10:34:53;;;;;;;0.97;0.50;;;;;;;;;;5521296;25;20460;-73
2024/04/09 10:37:21;;;;;;;0.67;0.60;;;;;;;;;;5522258;26;20475;-73
2024/04/09 10:39:48;;;;;;;0.77;0.50;;;;;;;;;;5522062;25;20468;-73
2024/04/09 10:42:22;;;;;;;0.47;0.37;;;;;;;;;;5522724;25;20476;-73
2024/04/09 10:44:48;;;;;;;0.50;0.50;;;;;;;;;;5523197;26;20532;-74
2024/04/09 10:47:20;;;;;;;0.90;0.60;;;;;;;;;;5521673;25;20472;-73
2024/04/09 10:49:46;;;;;;;1.03;0.40;;;;;;;;;;5523173;25;20464;-74
2024/04/09 10:52:15;;;;;;;0.63;0.50;;;;;;;;;;5522676;26;20479;-73
2024/04/09 10:54:41;;;;;;;1.43;1.20;;;;;;;;;;5523006;25;21013;-73
2024/04/09 10:57:10;;;;;;;0.50;0.40;;;;;;;;;;5523281;25;20507;-73
2024/04/09 10:59:37;;;;;;;1.43;0.87;;;;;;;;;;5522918;25;20824;-73
2024/04/09 11:02:08;;;;;;;0.40;0.40;;;;;;;;;;5522741;25;20461;-73
2024/04/09 11:04:36;;;;;;;1.73;0.70;;;;;;;;;;5511412;26;20456;-73
2024/04/09 11:07:07;;;;;;;2.50;0.70;;;;;;;;;;5500679;25;20543;-73
2024/04/09 11:09:33;;;;;;;7.93;0.97;;;;;;;;;;5522385;26;20882;-74
2024/04/09 11:12:02;;;;;;;1.50;0.47;;;;;;;;;;5508297;25;20888;-73
2024/04/09 11:14:29;;;;;;;1.53;0.80;;;;;;;;;;5523011;25;20531;-73
2024/04/09 11:16:58;;;;;;;1.90;0.77;;;;;;;;;;5522485;25;20521;-73
2024/04/09 11:19:27;;;;;;;0.80;0.60;;;;;;;;;;5522270;25;20818;-74
2024/04/09 11:21:59;;;;;;;3.47;0.70;;;;;;;;;;5522135;25;20944;-74
2024/04/09 11:24:26;;;;;;;1.57;0.90;;;;;;;;;;5522678;26;20516;-73
2024/04/09 11:26:55;;;;;;;0.77;0.77;;;;;;;;;;5521585;26;20528;-73
2024/04/09 11:29:21;;;;;;;1.93;0.70;;;;;;;;;;5522513;25;21077;-74
2024/04/09 11:31:50;;;;;;;2.00;0.80;;;;;;;;;;5521796;25;20476;-73
2024/04/09 11:34:23;;;;;;;1.50;0.90;;;;;;;;;;5522283;25;20468;-73
2024/04/09 11:36:53;;;;;;;1.47;1.10;;;;;;;;;;5522311;26;20488;-73
2024/04/09 11:39:23;;;;;;;2.30;0.80;;;;;;;;;;5522527;26;20562;-74
2024/04/09 11:41:52;;;;;;;0.87;0.87;;;;;;;;;;5499152;25;20513;-72
2024/04/09 11:44:21;;;;;;;0.90;0.83;;;;;;;;;;5509757;25;20528;-72
2024/04/09 11:46:50;;;;;;;1.10;1.00;;;;;;;;;;5500987;25;20483;-73
2024/04/09 11:49:17;;;;;;;2.87;0.87;;;;;;;;;;5505029;25;20537;-72
2024/04/09 11:51:46;;;;;;;1.57;0.90;;;;;;;;;;5506444;25;21454;-73
2024/04/09 11:54:12;;;;;;;0.73;0.73;;;;;;;;;;5507906;25;20480;-73
2024/04/09 11:56:44;;;;;;;1.13;1.03;;;;;;;;;;5521984;26;21036;-73
2024/04/09 11:59:10;;;;;;;2.07;1.17;;;;;;;;;;5521705;26;20475;-73
2024/04/09 12:01:39;;;;;;;2.63;1.00;;;;;;;;;;5520499;25;20463;-73
2024/04/09 12:04:05;;;;;;;2.30;1.10;;;;;;;;;;5521961;26;20472;-73
2024/04/09 12:06:35;;;;;;;0.83;0.83;;;;;;;;;;5497435;25;20479;-73
2024/04/09 12:09:02;;;;;;;1.87;0.90;;;;;;;;;;5510729;25;20596;-73
2024/04/09 12:11:30;;;;;;;1.60;1.50;;;;;;;;;;5505853;25;20479;-73
2024/04/09 12:13:59;;;;;;;1.97;0.80;;;;;;;;;;5522004;26;20518;-73
2024/04/09 12:16:28;;;;;;;2.20;1.40;;;;;;;;;;5520984;25;20534;-73
2024/04/09 12:18:54;;;;;;;1.27;0.93;;;;;;;;;;5512744;25;21074;-74
2024/04/09 12:21:23;;;;;;;2.17;1.23;;;;;;;;;;5498026;25;20476;-74
2024/04/09 12:23:49;;;;;;;1.17;0.50;;;;;;;;;;5511056;25;20824;-74
2024/04/09 12:26:18;;;;;;;1.37;0.70;;;;;;;;;;5504599;25;20485;-74
2024/04/09 12:28:44;;;;;;;0.77;0.50;;;;;;;;;;5507635;25;20551;-74
2024/04/09 12:31:16;;;;;;;4.30;1.00;;;;;;;;;;5488203;25;20481;-72
2024/04/09 12:33:42;;;;;;;0.70;0.70;;;;;;;;;;5505342;25;20457;-74
2024/04/09 12:36:11;;;;;;;1.60;0.50;;;;;;;;;;5512851;25;20825;-75
2024/04/09 12:38:37;;;;;;;2.13;0.70;;;;;;;;;;5492417;25;20471;-73
2024/04/09 12:41:06;;;;;;;2.10;0.70;;;;;;;;;;5500198;25;20484;-74
2024/04/09 12:43:32;;;;;;;0.93;0.90;;;;;;;;;;5517609;25;20514;-73
2024/04/09 12:46:02;;;;;;;0.83;0.70;;;;;;;;;;5514264;25;20524;-74
2024/04/09 12:48:31;;;;;;;1.30;0.63;;;;;;;;;;5507224;25;21069;-73
2024/04/09 12:50:59;;;;;;;0.60;0.50;;;;;;;;;;5507369;25;21068;-73
2024/04/09 12:53:26;;;;;;;1.40;0.60;;;;;;;;;;5508094;25;21111;-73
2024/04/09 12:55:54;;;;;;;0.80;0.77;;;;;;;;;;5510987;25;20552;-73
2024/04/09 12:58:21;;;;;;;1.70;0.57;;;;;;;;;;5520519;25;20889;-74
2024/04/09 13:00:50;;;;;;;0.43;0.43;;;;;;;;;;5520817;25;20537;-74
2024/04/09 13:03:16;;;;;;;0.60;0.60;;;;;;;;;;5520256;25;20476;-74
2024/04/09 13:05:47;;;;;;;0.43;0.43;;;;;;;;;;5521464;25;20815;-73
2024/04/09 13:08:14;;;;;;;1.90;0.63;;;;;;;;;;5520624;25;20827;-73
2024/04/09 13:10:42;;;;;;;1.60;0.93;;;;;;;;;;5520854;25;20505;-72
2024/04/09 13:13:09;;;;;;;2.30;0.80;;;;;;;;;;5519585;25;20508;-73
2024/04/09 13:15:37;;;;;;;3.53;0.87;;;;;;;;;;5519614;25;21202;-73
2024/04/09 13:18:04;;;;;;;1.17;0.70;;;;;;;;;;5502907;25;20865;-72
2024/04/09 13:20:33;;;;;;;1.50;0.70;;;;;;;;;;5515557;25;20460;-74
2024/04/09 13:23:02;;;;;;;1.90;0.77;;;;;;;;;;5504955;25;20853;-74
2024/04/09 13:25:31;;;;;;;6.30;0.80;;;;;;;;;;5505916;25;20478;-73
2024/04/09 13:27:57;;;;;;;1.13;0.90;;;;;;;;;;5518677;25;20883;-72
2024/04/09 13:30:27;;;;;;;0.83;0.83;;;;;;;;;;5515217;25;20530;-75
2024/04/09 13:32:53;;;;;;;3.03;0.93;;;;;;;;;;5515125;25;21186;-74
2024/04/09 13:35:22;;;;;;;1.27;1.17;;;;;;;;;;5518360;25;20654;-72
2024/04/09 13:37:48;;;;;;;0.80;0.80;;;;;;;;;;5518363;25;20473;-73
2024/04/09 13:40:20;;;;;;;0.67;0.50;;;;;;;;;;5519431;26;21010;-74
2024/04/09 13:42:46;;;;;;;0.60;0.60;;;;;;;;;;5517682;25;20813;-74
2024/04/09 13:45:15;;;;;;;1.37;1.17;;;;;;;;;;5518027;25;20523;-74
2024/04/09 13:47:41;;;;;;;1.33;0.50;;;;;;;;;;5505301;25;20474;-73
2024/04/09 13:50:10;;;;;;;2.43;2.33;;;;;;;;;;5501783;25;20515;-73
2024/04/09 13:52:37;;;;;;;1.17;0.83;;;;;;;;;;5510836;25;20472;-73
2024/04/09 13:55:08;;;;;;;1.07;1.00;;;;;;;;;;5508137;25;20578;-74
2024/04/09 13:57:37;;;;;;;1.40;1.23;;;;;;;;;;5517086;25;20531;-74
2024/04/09 14:00:07;;;;;;;0.93;0.93;;;;;;;;;;5521432;25;20467;-73
2024/04/09 14:02:33;;;;;;;0.83;0.80;;;;;;;;;;5519424;26;20467;-73
2024/04/09 14:05:02;;;;;;;1.07;0.57;;;;;;;;;;5523113;26;20797;-73
2024/04/09 14:07:28;;;;;;;1.60;1.17;;;;;;;;;;5522006;25;20575;-73
2024/04/09 14:09:57;;;;;;;1.37;0.83;;;;;;;;;;5523440;25;20473;-73
2024/04/09 14:12:24;;;;;;;0.77;0.70;;;;;;;;;;5523301;26;20478;-73
2024/04/09 14:14:55;;;;;;;2.50;0.90;;;;;;;;;;5523282;25;20522;-74
2024/04/09 14:17:22;;;;;;;1.73;0.87;;;;;;;;;;5522433;25;20483;-73
2024/04/09 14:19:53;;;;;;;3.83;0.80;;;;;;;;;;5523708;26;20519;-73
2024/04/09 14:22:19;;;;;;;1.80;0.97;;;;;;;;;;5522195;25;20459;-73
2024/04/09 14:24:48;;;;;;;1.03;0.70;;;;;;;;;;5521204;26;20479;-73
2024/04/09 14:27:14;;;;;;;1.63;0.57;;;;;;;;;;5492018;26;20466;-73
2024/04/09 14:29:45;;;;;;;1.27;1.13;;;;;;;;;;5521896;25;20478;-73
2024/04/09 14:32:13;;;;;;;0.87;0.80;;;;;;;;;;5521625;26;20457;-73
2024/04/09 14:34:42;;;;;;;2.17;1.30;;;;;;;;;;5522235;26;20592;-72
2024/04/09 14:37:08;;;;;;;0.80;0.77;;;;;;;;;;5521860;25;20479;-73
2024/04/09 14:39:37;;;;;;;2.93;1.17;;;;;;;;;;5521957;26;20530;-73
2024/04/09 14:42:04;;;;;;;1.57;1.47;;;;;;;;;;5520481;25;20579;-73
2024/04/09 14:44:32;;;;;;;1.57;1.00;;;;;;;;;;5519842;26;21252;-73